Time;durP1;ratioP1;P1;durP2;ratioP2;P2;SDS_P1;SDS_P2;PMS_P1;PMS_P2;Temp;Humidity;BMP_temperature;BMP_pressure;BME280_temperature;BME280_humidity;BME280_pressure;Samples;Min_cycle;Max_cycle;Signal;HPM_P1;HPM_P2
2021/01/21 00:00:55;;;;;;;53.20;13.07;;;3.50;99.90;;;;;;4973473;28;20262;-69
2021/01/21 00:03:22;;;;;;;37.60;11.47;;;3.50;99.90;;;;;;4973614;28;20228;-69
2021/01/21 00:05:48;;;;;;;33.57;10.00;;;3.60;99.90;;;;;;4981587;28;20203;-69
2021/01/21 00:08:16;;;;;;;33.47;9.63;;;3.50;99.90;;;;;;5012370;28;20215;-69
2021/01/21 00:10:42;;;;;;;104.20;18.27;;;3.60;99.90;;;;;;5012414;28;20203;-69
2021/01/21 00:13:09;;;;;;;177.47;24.83;;;3.60;99.90;;;;;;5029375;28;20210;-70
2021/01/21 00:15:35;;;;;;;143.93;26.17;;;3.60;99.90;;;;;;4992354;28;20234;-69
2021/01/21 00:18:02;;;;;;;162.13;27.07;;;3.60;99.90;;;;;;4953852;29;20212;-69
2021/01/21 00:20:29;;;;;;;102.47;21.67;;;3.60;99.90;;;;;;4954579;29;20348;-69
2021/01/21 00:22:55;;;;;;;61.13;15.03;;;3.60;99.90;;;;;;4954366;29;20260;-69
2021/01/21 00:25:23;;;;;;;40.60;12.00;;;3.70;99.90;;;;;;4953804;29;20205;-69
2021/01/21 00:27:50;;;;;;;44.53;12.93;;;3.60;99.90;;;;;;4953016;28;20213;-69
2021/01/21 00:30:17;;;;;;;55.27;16.33;;;3.60;99.90;;;;;;4953764;29;20205;-69
2021/01/21 00:32:43;;;;;;;55.33;16.53;;;3.70;99.90;;;;;;5002224;28;20207;-69
2021/01/21 00:35:12;;;;;;;42.10;13.00;;;3.70;99.90;;;;;;5011931;28;20218;-69
2021/01/21 00:37:38;;;;;;;37.13;11.97;;;3.70;99.90;;;;;;5012314;28;20688;-69
2021/01/21 00:40:06;;;;;;;27.57;9.47;;;3.70;99.90;;;;;;5011824;28;20654;-69
2021/01/21 00:42:34;;;;;;;22.83;8.90;;;3.70;99.90;;;;;;5016202;28;20283;-70
2021/01/21 00:45:00;;;;;;;47.07;11.37;;;3.70;99.90;;;;;;5031499;28;20631;-69
2021/01/21 00:47:27;;;;;;;70.63;14.40;;;3.70;99.90;;;;;;5045666;28;20210;-69
2021/01/21 00:49:54;;;;;;;102.40;18.67;;;3.70;99.90;;;;;;5065309;28;20275;-69
2021/01/21 00:52:20;;;;;;;99.67;18.47;;;3.70;99.90;;;;;;5071436;28;20217;-69
2021/01/21 00:54:47;;;;;;;88.67;16.17;;;3.70;99.90;;;;;;5071381;28;20205;-69
2021/01/21 00:57:13;;;;;;;44.37;11.10;;;3.70;99.90;;;;;;5071474;28;20197;-69
2021/01/21 00:59:41;;;;;;;32.37;9.63;;;3.70;99.90;;;;;;5051504;28;20193;-69
2021/01/21 01:02:09;;;;;;;25.53;7.83;;;3.60;99.90;;;;;;5031163;28;20210;-70
2021/01/21 01:04:36;;;;;;;23.43;7.10;;;3.60;99.90;;;;;;4972726;28;20209;-70
2021/01/21 01:07:06;;;;;;;19.87;6.93;;;3.50;99.90;;;;;;4953103;29;20205;-70
2021/01/21 01:09:32;;;;;;;22.83;7.27;;;3.50;99.90;;;;;;4953662;29;20228;-70
2021/01/21 01:11:59;;;;;;;22.73;6.20;;;3.50;99.90;;;;;;4933834;29;20213;-69
2021/01/21 01:14:26;;;;;;;22.80;6.77;;;3.40;99.90;;;;;;4933948;29;20658;-69
2021/01/21 01:16:54;;;;;;;23.03;8.03;;;3.40;99.90;;;;;;4933704;29;20229;-69
2021/01/21 01:19:21;;;;;;;24.10;8.13;;;3.30;99.90;;;;;;4931506;29;20301;-69
2021/01/21 01:21:47;;;;;;;28.87;9.67;;;3.30;99.90;;;;;;4934424;29;20205;-69
2021/01/21 01:24:14;;;;;;;24.27;9.30;;;3.20;99.90;;;;;;4933801;29;20301;-69
2021/01/21 01:26:45;;;;;;;24.90;9.00;;;3.20;99.90;;;;;;4914723;29;20566;-69
2021/01/21 01:29:19;;;;;;;21.53;8.07;;;3.20;99.90;;;;;;4915207;29;20672;-69
2021/01/21 01:31:46;;;;;;;24.50;8.67;;;3.10;99.90;;;;;;4914616;29;20202;-69
2021/01/21 01:34:14;;;;;;;32.43;10.20;;;3.10;99.90;;;;;;4914600;29;20206;-69
2021/01/21 01:37:16;;;;;;;35.33;10.43;;;3.00;99.90;;;;;;4952567;28;20204;-69
2021/01/21 01:39:51;;;;;;;34.77;11.40;;;2.90;99.90;;;;;;4956036;28;20200;-69
2021/01/21 01:42:41;;;;;;;33.10;10.80;;;2.90;99.90;;;;;;4976144;28;20255;-69
2021/01/21 01:45:11;;;;;;;50.07;13.93;;;2.80;99.90;;;;;;4976032;28;20319;-69
2021/01/21 01:47:40;;;;;;;49.87;12.87;;;2.80;99.90;;;;;;4976070;28;20635;-69
2021/01/21 01:50:09;;;;;;;69.83;18.67;;;2.80;99.90;;;;;;4976133;28;20228;-69
2021/01/21 01:52:41;;;;;;;60.30;16.43;;;2.80;99.90;;;;;;4956578;28;20591;-69
2021/01/21 01:55:21;;;;;;;60.47;16.17;;;2.80;99.90;;;;;;4937315;29;20245;-69
2021/01/21 01:57:58;;;;;;;48.23;13.37;;;2.90;99.90;;;;;;4975042;28;20783;-69
2021/01/21 02:00:38;;;;;;;39.80;12.93;;;2.90;99.90;;;;;;4959626;28;20204;-69
2021/01/21 02:03:05;;;;;;;46.80;13.33;;;2.90;99.90;;;;;;4988201;28;20204;-69
2021/01/21 02:05:38;;;;;;;44.77;13.23;;;2.90;99.90;;;;;;5008798;28;20620;-69
2021/01/21 02:08:06;;;;;;;41.80;12.23;;;3.00;99.90;;;;;;5034186;28;20199;-69
2021/01/21 02:10:34;;;;;;;40.40;11.97;;;3.00;99.90;;;;;;5003546;28;20262;-69
2021/01/21 02:13:22;;;;;;;42.70;11.80;;;3.00;99.90;;;;;;4995179;28;20207;-69
2021/01/21 02:16:05;;;;;;;53.80;13.50;;;3.00;99.90;;;;;;4994488;28;20231;-69
2021/01/21 02:18:41;;;;;;;67.80;16.50;;;2.90;99.90;;;;;;4995347;28;20549;-69
2021/01/21 02:21:40;;;;;;;50.87;15.43;;;2.90;99.90;;;;;;5033423;28;20202;-70
2021/01/21 02:24:40;;;;;;;42.00;14.27;;;2.80;99.90;;;;;;5014681;28;20230;-69
2021/01/21 02:27:12;;;;;;;33.77;10.60;;;2.80;99.90;;;;;;4940180;29;20205;-69
2021/01/21 02:29:41;;;;;;;33.10;11.73;;;2.80;99.90;;;;;;4928295;29;20226;-69
2021/01/21 02:32:34;;;;;;;30.97;10.53;;;2.80;99.90;;;;;;4956126;29;20299;-69
2021/01/21 02:35:22;;;;;;;24.67;8.33;;;2.80;99.90;;;;;;4947743;29;20717;-69
2021/01/21 02:37:55;;;;;;;25.27;9.30;;;2.80;99.90;;;;;;4936695;29;20305;-69
2021/01/21 02:40:26;;;;;;;28.03;9.07;;;2.80;99.90;;;;;;4936648;29;20285;-70
2021/01/21 02:43:10;;;;;;;23.57;9.43;;;2.80;99.90;;;;;;4936305;29;20324;-69
2021/01/21 02:45:39;;;;;;;29.10;9.07;;;2.80;99.90;;;;;;4908816;29;20217;-69
2021/01/21 02:48:07;;;;;;;24.50;8.20;;;2.80;99.90;;;;;;4870048;29;20211;-69
2021/01/21 02:50:58;;;;;;;19.93;7.60;;;2.70;99.90;;;;;;4898059;29;20270;-69
2021/01/21 02:53:26;;;;;;;25.37;8.60;;;2.80;99.90;;;;;;4879781;29;20211;-69
2021/01/21 02:56:01;;;;;;;25.00;8.50;;;2.80;99.90;;;;;;4920126;29;20679;-69
2021/01/21 02:58:36;;;;;;;25.20;7.80;;;2.70;99.90;;;;;;4923031;29;20201;-69
2021/01/21 03:01:08;;;;;;;28.03;8.43;;;2.70;99.90;;;;;;4936002;29;20241;-69
2021/01/21 03:03:38;;;;;;;21.70;7.60;;;2.70;99.90;;;;;;4923218;29;20206;-69
2021/01/21 03:06:11;;;;;;;20.63;7.53;;;2.60;99.90;;;;;;4909280;29;20202;-69
2021/01/21 03:08:41;;;;;;;22.07;8.20;;;2.60;99.90;;;;;;4935650;29;20746;-69
2021/01/21 03:11:10;;;;;;;20.90;7.53;;;2.50;99.90;;;;;;4936009;29;20260;-69
2021/01/21 03:13:38;;;;;;;21.00;7.53;;;2.50;99.90;;;;;;4935745;29;20707;-69
2021/01/21 03:16:05;;;;;;;23.57;8.07;;;2.40;99.90;;;;;;4935666;29;20236;-69
2021/01/21 03:18:32;;;;;;;23.13;7.57;;;2.40;99.90;;;;;;4912543;29;20210;-69
2021/01/21 03:20:59;;;;;;;19.60;7.63;;;2.40;99.90;;;;;;4895254;29;20621;-69
2021/01/21 03:23:42;;;;;;;20.57;7.40;;;2.30;99.90;;;;;;4878953;29;20214;-69
2021/01/21 03:26:09;;;;;;;21.57;7.33;;;2.30;99.90;;;;;;4842058;29;20280;-69
2021/01/21 03:28:36;;;;;;;18.23;6.97;;;2.40;99.90;;;;;;4843669;29;20232;-69
2021/01/21 03:31:06;;;;;;;21.20;7.30;;;2.30;99.90;;;;;;4861474;29;20711;-69
2021/01/21 03:33:33;;;;;;;20.37;7.10;;;2.40;99.90;;;;;;4897533;29;20199;-69
2021/01/21 03:35:59;;;;;;;25.60;7.23;;;2.40;99.90;;;;;;4897573;29;20226;-69
2021/01/21 03:38:27;;;;;;;33.20;8.43;;;2.40;99.90;;;;;;4897913;29;20237;-69
2021/01/21 03:41:26;;;;;;;30.43;8.43;;;2.40;99.90;;;;;;4897542;29;20215;-70
2021/01/21 03:44:13;;;;;;;24.83;8.07;;;2.40;99.90;;;;;;4878608;29;20302;-69
2021/01/21 03:46:45;;;;;;;26.40;8.43;;;2.50;99.90;;;;;;4878751;29;20204;-69
2021/01/21 03:49:19;;;;;;;21.57;7.37;;;2.50;99.90;;;;;;4878733;29;20224;-69
2021/01/21 03:51:54;;;;;;;20.33;8.60;;;2.50;99.90;;;;;;4879383;29;20207;-69
2021/01/21 03:54:33;;;;;;;53.13;14.03;;;2.60;99.90;;;;;;4887500;29;20238;-69
2021/01/21 03:57:08;;;;;;;45.77;15.40;;;2.60;99.90;;;;;;4897593;29;20199;-69
2021/01/21 03:59:35;;;;;;;86.80;22.47;;;2.60;99.90;;;;;;4897417;29;20213;-69
2021/01/21 04:02:01;;;;;;;81.17;20.47;;;2.70;99.90;;;;;;4897370;29;20286;-69
2021/01/21 04:04:29;;;;;;;102.43;23.67;;;2.70;99.90;;;;;;4897499;29;20203;-69
2021/01/21 04:06:56;;;;;;;126.90;28.53;;;2.70;99.90;;;;;;4916456;29;20695;-69
2021/01/21 04:09:31;;;;;;;179.10;34.70;;;2.70;99.90;;;;;;4915879;29;20248;-69
2021/01/21 04:12:17;;;;;;;180.77;35.90;;;2.80;99.90;;;;;;4916929;29;20251;-69
2021/01/21 04:14:44;;;;;;;146.33;32.23;;;2.80;99.90;;;;;;4931532;28;20208;-69
2021/01/21 04:17:12;;;;;;;107.53;28.03;;;2.80;99.90;;;;;;4969309;28;20242;-69
2021/01/21 04:19:41;;;;;;;91.53;23.60;;;2.80;99.90;;;;;;4992755;28;20195;-69
2021/01/21 04:22:08;;;;;;;72.87;19.13;;;2.80;99.90;;;;;;4934626;29;20233;-70
2021/01/21 04:24:35;;;;;;;58.97;16.83;;;2.80;99.90;;;;;;4934660;29;20649;-69
2021/01/21 04:27:08;;;;;;;47.73;15.20;;;2.80;99.90;;;;;;4918812;29;20209;-69
2021/01/21 04:29:46;;;;;;;36.30;11.67;;;2.80;99.90;;;;;;4896923;29;20313;-69
2021/01/21 04:32:14;;;;;;;30.53;10.97;;;2.80;99.90;;;;;;4878358;29;20204;-69
2021/01/21 04:34:41;;;;;;;31.70;10.43;;;2.80;99.90;;;;;;4878340;29;20207;-69
2021/01/21 04:37:07;;;;;;;25.63;10.20;;;2.80;99.90;;;;;;4896431;29;20674;-69
2021/01/21 04:40:14;;;;;;;23.67;9.37;;;2.80;99.90;;;;;;4915837;29;20220;-69
2021/01/21 04:42:43;;;;;;;20.17;8.17;;;2.80;99.90;;;;;;4899498;29;20665;-69
2021/01/21 04:45:11;;;;;;;17.63;8.47;;;2.80;99.90;;;;;;4920008;29;20209;-69
2021/01/21 04:47:47;;;;;;;21.30;9.23;;;2.80;99.90;;;;;;4915050;29;20194;-69
2021/01/21 04:50:27;;;;;;;16.37;7.50;;;2.80;99.90;;;;;;4934204;29;20261;-69
2021/01/21 04:53:17;;;;;;;16.47;8.17;;;2.70;99.90;;;;;;4954260;28;20278;-69
2021/01/21 04:56:06;;;;;;;14.93;7.60;;;2.70;99.90;;;;;;4953153;29;20296;-69
2021/01/21 04:58:47;;;;;;;17.80;8.17;;;2.70;99.90;;;;;;4953582;29;20208;-69
2021/01/21 05:01:16;;;;;;;17.43;7.37;;;2.80;99.90;;;;;;4920967;29;20202;-69
2021/01/21 05:03:43;;;;;;;15.00;7.30;;;2.80;99.90;;;;;;4915064;29;20306;-69
2021/01/21 05:06:41;;;;;;;18.77;8.17;;;2.80;99.90;;;;;;4933927;29;20197;-69
2021/01/21 05:09:08;;;;;;;14.50;7.67;;;2.80;99.90;;;;;;4935796;29;20254;-69
2021/01/21 05:11:36;;;;;;;15.60;7.47;;;2.80;99.90;;;;;;4901340;29;20217;-69
2021/01/21 05:14:21;;;;;;;16.07;7.60;;;2.80;99.90;;;;;;4896411;29;20265;-69
2021/01/21 05:17:04;;;;;;;20.87;8.93;;;2.80;99.90;;;;;;4947584;29;20225;-69
2021/01/21 05:19:55;;;;;;;26.40;9.80;;;2.80;99.90;;;;;;4879766;29;20659;-69
2021/01/21 05:22:40;;;;;;;35.20;11.87;;;2.80;99.90;;;;;;4896205;29;20214;-69
2021/01/21 05:25:42;;;;;;;42.43;15.33;;;2.80;99.90;;;;;;4933697;29;20213;-69
2021/01/21 05:28:11;;;;;;;58.87;18.80;;;2.70;99.90;;;;;;4951783;29;20210;-69
2021/01/21 05:31:01;;;;;;;44.67;15.83;;;2.60;99.90;;;;;;4933861;29;20214;-69
2021/01/21 05:42:06;;;;;;;110.77;22.77;;;2.60;99.90;;;;;;4902945;29;20308;-69
2021/01/21 05:44:45;;;;;;;104.07;23.43;;;2.60;99.90;;;;;;4914718;29;20281;-69
2021/01/21 05:47:32;;;;;;;114.27;24.73;;;2.70;99.90;;;;;;4915736;29;20561;-69
2021/01/21 05:49:59;;;;;;;108.00;26.70;;;2.70;99.90;;;;;;4914566;29;20242;-69
2021/01/21 05:52:27;;;;;;;114.47;27.73;;;2.70;99.90;;;;;;4914833;29;20238;-69
2021/01/21 05:54:56;;;;;;;96.33;25.00;;;2.60;99.90;;;;;;4933238;29;20691;-69
2021/01/21 05:57:45;;;;;;;95.83;23.23;;;2.70;99.90;;;;;;4880271;29;20258;-69
2021/01/21 06:00:14;;;;;;;107.20;24.77;;;2.70;99.90;;;;;;4890282;29;20211;-69
2021/01/21 06:02:43;;;;;;;115.40;25.67;;;2.70;99.90;;;;;;4910797;29;20206;-69
2021/01/21 06:05:28;;;;;;;102.87;25.87;;;2.70;99.90;;;;;;4898965;29;20216;-69
2021/01/21 06:07:54;;;;;;;117.03;25.77;;;2.80;99.90;;;;;;4914636;29;20312;-69
2021/01/21 06:10:22;;;;;;;137.40;27.97;;;2.80;99.90;;;;;;4923376;29;20226;-69
2021/01/21 06:12:51;;;;;;;89.27;23.20;;;2.80;99.90;;;;;;4934123;29;20256;-69
2021/01/21 06:15:19;;;;;;;85.13;21.63;;;2.80;99.90;;;;;;4949413;28;20323;-69
2021/01/21 06:17:47;;;;;;;61.30;18.07;;;2.90;99.90;;;;;;4971777;28;20677;-69
2021/01/21 06:20:46;;;;;;;49.67;15.67;;;2.90;99.90;;;;;;4914525;29;20226;-69
2021/01/21 06:23:38;;;;;;;47.70;15.50;;;3.00;99.90;;;;;;4913766;29;20210;-69
2021/01/21 06:26:41;;;;;;;33.93;12.93;;;3.00;99.90;;;;;;4874069;29;20548;-69
2021/01/21 06:29:11;;;;;;;29.67;11.47;;;3.10;99.90;;;;;;4911377;29;20685;-69
2021/01/21 06:31:40;;;;;;;22.73;10.20;;;3.10;99.90;;;;;;4936792;29;20206;-69
2021/01/21 06:34:10;;;;;;;26.00;10.00;;;3.10;99.90;;;;;;4936920;29;20537;-70
2021/01/21 06:36:43;;;;;;;21.50;9.80;;;3.20;99.90;;;;;;4937506;29;20206;-69
2021/01/21 06:39:15;;;;;;;23.90;9.57;;;3.20;99.90;;;;;;4948073;29;20866;-69
2021/01/21 06:41:45;;;;;;;25.90;10.27;;;3.30;99.90;;;;;;4955947;29;20213;-69
2021/01/21 06:44:16;;;;;;;44.07;14.63;;;3.30;99.90;;;;;;4956176;29;20220;-69
2021/01/21 06:46:46;;;;;;;78.40;25.27;;;3.30;99.90;;;;;;4955535;29;20205;-69
2021/01/21 06:49:14;;;;;;;94.57;28.90;;;3.20;99.90;;;;;;4949724;29;20228;-69
2021/01/21 06:51:48;;;;;;;90.70;32.37;;;3.00;99.90;;;;;;4955598;29;20209;-69
2021/01/21 06:54:16;;;;;;;97.40;34.80;;;2.70;99.90;;;;;;4955927;29;20314;-69
2021/01/21 06:56:43;;;;;;;80.27;30.00;;;2.50;99.90;;;;;;4967929;28;20200;-69
2021/01/21 06:59:09;;;;;;;79.37;27.23;;;2.40;99.90;;;;;;4974847;28;20212;-69
2021/01/21 07:01:46;;;;;;;72.23;25.73;;;2.40;99.90;;;;;;4976154;28;20196;-69
2021/01/21 07:04:27;;;;;;;82.73;28.20;;;2.30;99.90;;;;;;4975217;28;20208;-69
2021/01/21 07:07:08;;;;;;;62.70;24.40;;;2.30;99.90;;;;;;4999298;28;20772;-69
2021/01/21 07:09:38;;;;;;;56.97;22.67;;;2.30;99.90;;;;;;5023712;28;20590;-69
2021/01/21 07:12:06;;;;;;;62.40;22.10;;;2.30;99.90;;;;;;5053880;28;20202;-69
2021/01/21 07:14:34;;;;;;;68.23;23.57;;;2.40;99.90;;;;;;5053496;28;20202;-69
2021/01/21 07:17:03;;;;;;;60.07;22.53;;;2.50;99.90;;;;;;5061267;28;20571;-69
2021/01/21 07:19:34;;;;;;;61.33;22.43;;;2.60;99.90;;;;;;5093497;28;20208;-69
2021/01/21 07:22:12;;;;;;;54.90;21.13;;;2.80;99.90;;;;;;5093984;28;20193;-69
2021/01/21 07:24:50;;;;;;;50.97;20.73;;;2.90;99.90;;;;;;5033852;28;20637;-69
2021/01/21 07:27:19;;;;;;;46.50;18.93;;;3.00;99.90;;;;;;5033813;28;20206;-69
2021/01/21 07:29:45;;;;;;;53.73;20.57;;;3.20;99.90;;;;;;5013316;28;20269;-69
2021/01/21 07:32:13;;;;;;;50.93;20.13;;;3.30;99.90;;;;;;4993993;28;20355;-69
2021/01/21 07:34:44;;;;;;;59.80;22.60;;;3.50;99.90;;;;;;5003978;28;20611;-69
2021/01/21 07:37:16;;;;;;;58.70;20.97;;;3.60;99.90;;;;;;5033095;28;20613;-69
2021/01/21 07:40:05;;;;;;;55.10;19.70;;;3.70;99.90;;;;;;5033422;28;20541;-69
2021/01/21 07:43:01;;;;;;;45.37;18.27;;;3.80;99.90;;;;;;5029198;28;20210;-69
2021/01/21 07:45:29;;;;;;;39.20;17.07;;;3.90;99.90;;;;;;4974450;28;20248;-69
2021/01/21 07:47:57;;;;;;;35.20;15.63;;;4.00;99.90;;;;;;4974136;28;20208;-69
2021/01/21 07:50:42;;;;;;;30.00;13.47;;;4.00;99.90;;;;;;4973806;28;20224;-69
2021/01/21 07:53:20;;;;;;;34.17;14.63;;;4.10;99.90;;;;;;4974414;28;20208;-69
2021/01/21 07:55:48;;;;;;;31.17;13.37;;;4.20;99.90;;;;;;4954892;29;20555;-70
2021/01/21 07:58:16;;;;;;;30.40;12.30;;;4.30;99.90;;;;;;4954792;29;20637;-69
2021/01/21 08:00:43;;;;;;;30.63;12.13;;;4.40;99.90;;;;;;4954932;29;20205;-70
2021/01/21 08:03:11;;;;;;;27.43;11.17;;;4.50;99.90;;;;;;4991185;28;20211;-70
2021/01/21 08:05:37;;;;;;;32.47;12.93;;;4.60;99.90;;;;;;5013345;28;20210;-70
2021/01/21 08:08:05;;;;;;;32.80;12.97;;;4.70;99.90;;;;;;5012618;28;20222;-70
2021/01/21 08:10:33;;;;;;;30.93;12.87;;;4.80;99.90;;;;;;5012765;28;20243;-70
2021/01/21 08:13:02;;;;;;;31.83;13.43;;;4.90;99.90;;;;;;5012660;28;20235;-70
2021/01/21 08:15:30;;;;;;;27.40;11.73;;;5.10;99.90;;;;;;4973219;28;20587;-70
2021/01/21 08:17:57;;;;;;;26.43;10.43;;;5.20;99.90;;;;;;4973954;28;20206;-70
2021/01/21 08:20:26;;;;;;;21.27;9.47;;;5.30;99.90;;;;;;5024173;28;20651;-70
2021/01/21 08:22:57;;;;;;;15.10;7.37;;;5.50;99.90;;;;;;5032709;28;20640;-70
2021/01/21 08:25:24;;;;;;;17.40;8.67;;;5.70;99.90;;;;;;5012957;28;20206;-70
2021/01/21 08:27:52;;;;;;;14.07;7.67;;;5.80;99.90;;;;;;4973281;28;20258;-70
2021/01/21 08:30:21;;;;;;;16.10;7.73;;;5.90;99.90;;;;;;4954169;29;20228;-70
2021/01/21 08:32:53;;;;;;;16.90;7.93;;;6.10;99.90;;;;;;4954004;29;20212;-70
2021/01/21 08:35:23;;;;;;;16.80;7.63;;;6.20;99.90;;;;;;4954402;29;20215;-70
2021/01/21 08:37:54;;;;;;;15.30;8.10;;;6.40;99.90;;;;;;4954017;29;20276;-70
2021/01/21 08:40:21;;;;;;;16.50;7.73;;;6.50;99.90;;;;;;4934735;29;20236;-70
2021/01/21 08:42:50;;;;;;;20.40;7.93;;;6.60;99.90;;;;;;4934620;29;20206;-70
2021/01/21 08:45:18;;;;;;;22.40;8.77;;;6.70;99.90;;;;;;4934739;29;20538;-70
2021/01/21 08:47:46;;;;;;;26.93;11.53;;;6.80;99.90;;;;;;4915034;29;20229;-70
2021/01/21 08:50:14;;;;;;;28.50;10.43;;;6.90;99.90;;;;;;4877839;29;20326;-70
2021/01/21 08:52:58;;;;;;;33.87;12.03;;;6.90;99.90;;;;;;4878033;29;20208;-70
2021/01/21 08:55:36;;;;;;;26.53;11.00;;;7.00;99.90;;;;;;4915892;29;20254;-70
2021/01/21 08:58:04;;;;;;;24.40;11.13;;;7.10;99.90;;;;;;4915881;29;20678;-70
2021/01/21 09:00:31;;;;;;;34.40;14.50;;;7.10;99.90;;;;;;4915574;29;20221;-70
2021/01/21 09:02:58;;;;;;;39.60;16.20;;;7.20;99.90;;;;;;4915531;29;20550;-70
2021/01/21 09:05:25;;;;;;;49.43;19.70;;;7.20;99.90;;;;;;4925710;29;20220;-70
2021/01/21 09:08:01;;;;;;;56.23;21.30;;;7.20;99.90;;;;;;4954776;28;20228;-70
2021/01/21 09:10:39;;;;;;;60.30;22.40;;;7.20;99.90;;;;;;4978100;28;20314;-70
2021/01/21 09:13:07;;;;;;;61.77;24.33;;;7.30;99.90;;;;;;5012426;28;20667;-70
2021/01/21 09:15:52;;;;;;;57.80;23.57;;;7.30;99.90;;;;;;5011390;28;20676;-70
2021/01/21 09:18:20;;;;;;;66.73;25.03;;;7.30;99.90;;;;;;5011927;28;20203;-70
2021/01/21 09:20:48;;;;;;;67.57;25.17;;;7.30;99.90;;;;;;5031981;28;20602;-70
2021/01/21 09:23:18;;;;;;;66.73;26.17;;;7.40;99.90;;;;;;5031630;28;20205;-70
2021/01/21 09:25:46;;;;;;;71.33;27.47;;;7.40;99.90;;;;;;5031555;28;20655;-70
2021/01/21 09:28:13;;;;;;;69.90;26.30;;;7.40;99.90;;;;;;5031724;28;20256;-70
2021/01/21 09:30:40;;;;;;;64.00;24.17;;;7.40;99.90;;;;;;5031890;28;20226;-70
2021/01/21 09:33:07;;;;;;;61.30;24.60;;;7.40;99.90;;;;;;5031290;28;20234;-70
2021/01/21 09:35:35;;;;;;;47.40;20.73;;;7.50;99.90;;;;;;5031535;28;20210;-70
2021/01/21 09:38:01;;;;;;;43.53;18.33;;;7.50;99.90;;;;;;5034293;28;20236;-70
2021/01/21 09:40:29;;;;;;;40.90;17.80;;;7.60;99.90;;;;;;5051138;28;20202;-70
2021/01/21 09:42:58;;;;;;;43.07;17.27;;;7.60;99.90;;;;;;5051219;28;20214;-70
2021/01/21 09:45:26;;;;;;;34.83;15.30;;;7.70;99.90;;;;;;5051026;28;20222;-70
2021/01/21 09:47:53;;;;;;;34.17;14.57;;;7.80;99.90;;;;;;5051098;28;20201;-70
2021/01/21 09:50:20;;;;;;;33.23;14.80;;;7.80;99.90;;;;;;5059659;28;20264;-70
2021/01/21 09:52:47;;;;;;;37.80;15.87;;;7.80;99.90;;;;;;5089878;28;20197;-70
2021/01/21 09:55:14;;;;;;;58.97;21.33;;;7.90;99.90;;;;;;5091311;28;20575;-70
2021/01/21 09:57:41;;;;;;;63.67;23.87;;;7.90;99.90;;;;;;5091267;28;20192;-70
2021/01/21 10:00:11;;;;;;;69.87;26.20;;;7.90;99.90;;;;;;5093545;28;20201;-70
2021/01/21 10:02:41;;;;;;;77.73;30.23;;;7.90;99.90;;;;;;5055265;28;20205;-70
2021/01/21 10:05:08;;;;;;;78.20;29.53;;;7.90;99.90;;;;;;5092560;28;20213;-70
2021/01/21 10:07:35;;;;;;;83.93;30.20;;;7.90;99.90;;;;;;5095886;28;20200;-70
2021/01/21 10:10:02;;;;;;;82.33;32.20;;;7.90;99.90;;;;;;5095002;28;20252;-70
2021/01/21 10:12:28;;;;;;;77.97;31.00;;;7.90;99.90;;;;;;5054752;28;20606;-70
2021/01/21 10:14:58;;;;;;;76.17;29.17;;;7.90;99.90;;;;;;5054668;28;20215;-70
2021/01/21 10:17:25;;;;;;;64.47;26.97;;;7.90;99.90;;;;;;5015562;28;20310;-70
2021/01/21 10:19:52;;;;;;;61.20;24.47;;;7.90;99.90;;;;;;4995209;28;20210;-70
2021/01/21 10:22:19;;;;;;;41.90;19.30;;;7.90;99.90;;;;;;4995082;28;20200;-70
2021/01/21 10:24:47;;;;;;;37.67;16.87;;;8.00;99.90;;;;;;4976010;28;20292;-70
2021/01/21 10:27:13;;;;;;;31.57;13.67;;;8.10;99.90;;;;;;4975696;28;20205;-70
2021/01/21 10:29:40;;;;;;;21.53;10.33;;;8.20;99.90;;;;;;4976021;28;20222;-70
2021/01/21 10:32:06;;;;;;;27.03;10.87;;;8.20;99.90;;;;;;4976229;28;20207;-70
2021/01/21 10:34:34;;;;;;;61.20;18.13;;;8.30;99.90;;;;;;5009757;28;20216;-70
2021/01/21 10:37:02;;;;;;;55.63;16.37;;;8.40;99.90;;;;;;4994915;28;20760;-70
2021/01/21 10:39:29;;;;;;;33.57;10.27;;;8.50;99.90;;;;;;4994992;28;20209;-70
2021/01/21 10:41:55;;;;;;;21.47;7.63;;;8.60;99.90;;;;;;4994963;28;20667;-70
2021/01/21 10:44:22;;;;;;;15.77;6.07;;;8.60;99.90;;;;;;5011804;28;20228;-70
2021/01/21 10:46:49;;;;;;;14.07;5.90;;;8.60;99.90;;;;;;5015032;28;20211;-70
2021/01/21 10:49:15;;;;;;;50.70;12.97;;;8.70;99.90;;;;;;5031224;28;20605;-70
2021/01/21 10:51:43;;;;;;;30.90;9.43;;;8.70;99.90;;;;;;5050885;28;20212;-70
2021/01/21 10:54:09;;;;;;;19.67;5.73;;;8.70;99.90;;;;;;5053835;28;20215;-70
2021/01/21 10:56:36;;;;;;;14.37;5.33;;;8.70;99.90;;;;;;5071194;28;20205;-70
2021/01/21 10:59:05;;;;;;;15.13;4.80;;;8.70;99.90;;;;;;5073913;28;20189;-70
2021/01/21 11:01:32;;;;;;;8.93;3.87;;;8.80;99.90;;;;;;5091265;28;20229;-70
2021/01/21 11:03:58;;;;;;;8.60;3.83;;;8.80;99.90;;;;;;5054070;28;20207;-70
2021/01/21 11:06:25;;;;;;;7.23;3.43;;;8.80;99.90;;;;;;5014012;28;20623;-70
2021/01/21 11:08:52;;;;;;;8.63;3.97;;;8.80;99.90;;;;;;5030832;28;20209;-70
2021/01/21 11:11:19;;;;;;;11.63;4.30;;;8.80;99.90;;;;;;5033413;28;20236;-69
2021/01/21 11:13:46;;;;;;;8.90;4.27;;;8.90;99.90;;;;;;5033512;28;20551;-69
2021/01/21 11:16:13;;;;;;;8.83;4.37;;;8.90;99.90;;;;;;5033412;28;20311;-69
2021/01/21 11:18:40;;;;;;;8.10;3.83;;;8.90;99.90;;;;;;5033676;28;20215;-69
2021/01/21 11:21:06;;;;;;;19.93;8.17;;;8.90;99.90;;;;;;5013601;28;20243;-69
2021/01/21 11:23:33;;;;;;;53.77;14.60;;;8.90;99.90;;;;;;5013660;28;20209;-69
2021/01/21 11:26:00;;;;;;;45.40;11.50;;;8.90;99.90;;;;;;5014062;28;20210;-70
2021/01/21 11:28:27;;;;;;;26.27;8.10;;;8.90;99.90;;;;;;5014101;28;20209;-69
2021/01/21 11:30:54;;;;;;;17.57;5.97;;;8.90;99.90;;;;;;5013303;28;20230;-70
2021/01/21 11:33:20;;;;;;;12.23;5.10;;;8.80;99.90;;;;;;5013774;28;20210;-69
2021/01/21 11:35:47;;;;;;;9.87;4.13;;;8.90;99.90;;;;;;5029864;28;20202;-69
2021/01/21 11:38:14;;;;;;;12.87;4.37;;;8.90;99.90;;;;;;5013157;28;20204;-70
2021/01/21 11:40:41;;;;;;;7.27;3.60;;;8.90;99.90;;;;;;5013810;28;20746;-70
2021/01/21 11:43:09;;;;;;;6.33;3.57;;;8.80;99.90;;;;;;4970797;28;20214;-70
2021/01/21 11:45:36;;;;;;;12.23;3.97;;;8.90;99.90;;;;;;4955038;29;20228;-70
2021/01/21 11:48:04;;;;;;;5.87;3.50;;;8.90;99.90;;;;;;4954957;29;20211;-70
2021/01/21 11:50:30;;;;;;;7.10;3.43;;;8.90;99.90;;;;;;4955450;29;20650;-70
2021/01/21 11:52:57;;;;;;;8.83;3.50;;;8.90;99.90;;;;;;4971112;28;20221;-70
2021/01/21 11:55:24;;;;;;;5.80;3.33;;;8.80;99.90;;;;;;4973890;28;20206;-70
2021/01/21 11:57:51;;;;;;;4.43;3.07;;;8.80;99.90;;;;;;4973924;28;20219;-70
2021/01/21 12:00:20;;;;;;;5.60;3.27;;;8.80;99.90;;;;;;4990453;28;20203;-70
2021/01/21 12:02:46;;;;;;;6.07;3.70;;;8.80;99.90;;;;;;4993168;28;20222;-70
2021/01/21 12:05:14;;;;;;;7.63;3.80;;;8.80;99.90;;;;;;4993166;28;20200;-70
2021/01/21 12:07:40;;;;;;;14.50;6.00;;;8.80;99.90;;;;;;4993268;28;20214;-70
2021/01/21 12:10:08;;;;;;;25.93;8.63;;;8.80;99.90;;;;;;5026893;28;20231;-70
2021/01/21 12:12:34;;;;;;;20.93;6.93;;;8.80;99.90;;;;;;5049833;28;20203;-70
2021/01/21 12:15:01;;;;;;;18.27;7.03;;;8.90;99.90;;;;;;5033748;28;20275;-70
2021/01/21 12:17:29;;;;;;;12.93;4.83;;;8.90;99.90;;;;;;5032266;28;20202;-70
2021/01/21 12:19:58;;;;;;;9.60;4.07;;;8.90;99.90;;;;;;5032496;28;20194;-70
2021/01/21 12:22:26;;;;;;;8.90;4.20;;;8.90;99.90;;;;;;5012422;28;20217;-70
2021/01/21 12:24:53;;;;;;;9.00;4.40;;;8.90;99.90;;;;;;5012295;28;20225;-70
2021/01/21 12:27:19;;;;;;;13.10;6.37;;;9.00;99.90;;;;;;5012945;28;20238;-70
2021/01/21 12:29:46;;;;;;;11.63;6.20;;;9.00;99.90;;;;;;5013026;28;20308;-70
2021/01/21 12:32:12;;;;;;;17.43;6.80;;;9.00;99.90;;;;;;5012449;28;20206;-70
2021/01/21 12:34:40;;;;;;;18.33;6.73;;;8.90;99.90;;;;;;4973244;28;20361;-70
2021/01/21 12:37:07;;;;;;;13.20;6.30;;;8.90;99.90;;;;;;4992639;28;20701;-70
2021/01/21 12:39:33;;;;;;;8.83;4.80;;;8.90;99.90;;;;;;4976135;28;20262;-71
2021/01/21 12:42:00;;;;;;;7.03;4.00;;;8.90;99.90;;;;;;4973296;28;20242;-71
2021/01/21 12:44:26;;;;;;;6.37;4.10;;;8.90;99.90;;;;;;4973337;28;20262;-71
2021/01/21 12:46:53;;;;;;;9.40;4.57;;;8.90;99.90;;;;;;4990021;28;20718;-71
2021/01/21 12:49:20;;;;;;;10.40;4.30;;;8.90;99.90;;;;;;4993434;28;20225;-68
2021/01/21 12:51:47;;;;;;;12.53;4.70;;;8.90;99.90;;;;;;4973413;28;20202;-70
2021/01/21 12:54:14;;;;;;;11.33;4.80;;;8.90;99.90;;;;;;4989588;28;20214;-70
2021/01/21 12:56:40;;;;;;;9.43;4.20;;;8.90;99.90;;;;;;4992462;28;20238;-70
2021/01/21 12:59:07;;;;;;;8.10;3.67;;;8.90;99.90;;;;;;4992347;28;20198;-70
2021/01/21 13:01:34;;;;;;;5.97;3.43;;;8.90;99.90;;;;;;4992210;28;20210;-70
2021/01/21 13:04:01;;;;;;;5.57;3.40;;;8.90;99.90;;;;;;4992220;28;20210;-70
2021/01/21 13:06:27;;;;;;;6.40;3.00;;;8.80;99.90;;;;;;5008728;28;20702;-70
2021/01/21 13:08:55;;;;;;;6.20;4.03;;;8.80;99.90;;;;;;5040998;28;20203;-70